createdAt,value
2019-02-14T00:00:34.146Z,7.14
2019-02-14T00:03:05.747Z,7.16
2019-02-14T00:05:38.019Z,7.20
2019-02-14T00:08:08.743Z,7.22
2019-02-14T00:10:39.841Z,7.25
2019-02-14T00:13:11.176Z,7.25
2019-02-14T00:15:41.937Z,7.24
2019-02-14T00:18:13.536Z,7.24
2019-02-14T00:20:45.151Z,7.27
2019-02-14T00:23:16.871Z,7.27
2019-02-14T00:25:47.908Z,7.27
2019-02-14T00:28:21.800Z,7.25
2019-02-14T00:30:52.802Z,7.24
2019-02-14T00:33:24.885Z,7.27
2019-02-14T00:35:56.105Z,7.28
2019-02-14T00:38:27.489Z,7.28
2019-02-14T00:40:59.444Z,7.29
2019-02-14T00:43:31.353Z,7.27
2019-02-14T00:46:02.538Z,7.25
2019-02-14T00:48:33.680Z,7.27
2019-02-14T00:51:04.894Z,7.28
2019-02-14T00:53:36.070Z,7.25
2019-02-14T00:56:07.222Z,7.26
2019-02-14T00:58:40.037Z,7.30
2019-02-14T01:01:12.106Z,7.36
2019-02-14T01:03:43.299Z,7.36
2019-02-14T01:06:14.956Z,7.36
2019-02-14T01:08:46.592Z,7.32
2019-02-14T01:11:18.273Z,7.29
2019-02-14T01:13:50.031Z,7.30
2019-02-14T01:16:21.986Z,7.28
2019-02-14T01:18:55.785Z,7.25
2019-02-14T01:21:27.349Z,7.21
2019-02-14T01:23:58.990Z,7.20
2019-02-14T01:26:30.225Z,7.13
2019-02-14T01:29:01.347Z,7.11
2019-02-14T01:31:33.669Z,7.09
2019-02-14T01:34:05.043Z,7.08
2019-02-14T01:36:36.039Z,7.05
2019-02-14T01:39:07.917Z,7.03
2019-02-14T01:41:39.599Z,7.05
2019-02-14T01:44:10.681Z,7.07
2019-02-14T01:46:42.386Z,7.08
2019-02-14T01:49:14.708Z,7.16
2019-02-14T01:51:45.754Z,7.15
2019-02-14T01:54:17.459Z,7.16
2019-02-14T01:56:48.644Z,7.23
2019-02-14T01:59:20.186Z,7.20
2019-02-14T02:01:51.159Z,7.21
2019-02-14T02:04:22.721Z,7.21
2019-02-14T02:06:53.762Z,7.18
2019-02-14T02:09:25.195Z,7.17
2019-02-14T02:11:56.060Z,7.22
2019-02-14T02:14:28.409Z,7.20
2019-02-14T02:16:59.834Z,7.17
2019-02-14T02:19:32.844Z,7.16
2019-02-14T02:22:03.783Z,7.13
2019-02-14T02:24:34.426Z,7.13
2019-02-14T02:27:05.143Z,7.16
2019-02-14T02:29:36.466Z,7.18
2019-02-14T02:32:08.008Z,7.16
2019-02-14T02:34:39.232Z,7.18
2019-02-14T02:37:10.306Z,7.21
2019-02-14T02:39:41.468Z,7.21
2019-02-14T02:42:12.851Z,7.21
2019-02-14T02:44:44.068Z,7.25
2019-02-14T02:47:15.077Z,7.23
2019-02-14T02:49:46.298Z,7.30
2019-02-14T02:52:17.725Z,7.34
2019-02-14T02:54:48.720Z,7.33
2019-02-14T02:57:19.684Z,7.33
2019-02-14T02:59:50.910Z,7.33
2019-02-14T03:02:22.653Z,7.35
2019-02-14T03:04:53.605Z,7.37
2019-02-14T03:07:24.928Z,7.39
2019-02-14T03:09:55.858Z,7.42
2019-02-14T03:12:29.100Z,7.43
2019-02-14T03:15:00.663Z,7.46
2019-02-14T03:17:33.163Z,7.48
2019-02-14T03:20:05.163Z,7.51
2019-02-14T03:22:36.499Z,7.55
2019-02-14T03:25:10.396Z,7.57
2019-02-14T03:27:41.557Z,7.59
2019-02-14T03:30:15.685Z,7.58
2019-02-14T03:32:46.924Z,7.62
2019-02-14T03:35:18.660Z,7.61
2019-02-14T03:37:50.142Z,7.63
2019-02-14T03:40:21.563Z,7.67
2019-02-14T03:42:54.121Z,7.70
2019-02-14T03:45:26.379Z,7.72
2019-02-14T03:47:58.057Z,7.72
2019-02-14T03:50:29.139Z,7.69
2019-02-14T03:53:00.778Z,7.64
2019-02-14T03:55:32.672Z,7.65
2019-02-14T03:58:03.816Z,7.64
2019-02-14T04:00:35.151Z,7.62
2019-02-14T04:03:06.263Z,7.62
2019-02-14T04:05:38.640Z,7.66
2019-02-14T04:08:10.879Z,7.63
2019-02-14T04:10:42.092Z,7.59
2019-02-14T04:13:12.977Z,7.57
2019-02-14T04:15:44.208Z,7.56
2019-02-14T04:18:15.846Z,7.59
2019-02-14T04:20:48.726Z,7.54
2019-02-14T04:23:20.061Z,7.57
2019-02-14T04:25:50.556Z,7.57
2019-02-14T04:28:21.874Z,7.59
2019-02-14T04:30:53.200Z,7.62
2019-02-14T04:33:24.179Z,7.63
2019-02-14T04:35:55.069Z,7.63
2019-02-14T04:38:26.362Z,7.63
2019-02-14T04:40:57.376Z,7.61
2019-02-14T04:43:29.009Z,7.58
2019-02-14T04:46:00.389Z,7.62
2019-02-14T04:48:31.262Z,7.59
2019-02-14T04:51:02.383Z,7.55
2019-02-14T04:53:34.985Z,7.54
2019-02-14T04:56:05.920Z,7.54
2019-02-14T04:58:37.032Z,7.57
2019-02-14T05:01:09.355Z,7.56
2019-02-14T05:03:40.234Z,7.55
2019-02-14T05:06:14.398Z,7.57
2019-02-14T05:08:46.140Z,7.56
2019-02-14T05:11:17.504Z,7.57
2019-02-14T05:13:48.903Z,7.60
2019-02-14T05:16:19.810Z,7.60
2019-02-14T05:18:50.883Z,7.58
2019-02-14T05:21:23.784Z,7.61
2019-02-14T05:23:54.365Z,7.60
2019-02-14T05:26:25.549Z,7.62
2019-02-14T05:28:56.671Z,7.59
2019-02-14T05:31:28.193Z,7.59
2019-02-14T05:33:59.272Z,7.61
2019-02-14T05:36:30.222Z,7.62
2019-02-14T05:39:03.507Z,7.55
2019-02-14T05:41:35.394Z,7.55
2019-02-14T05:44:06.859Z,7.53
2019-02-14T05:46:39.062Z,7.53
2019-02-14T05:49:10.975Z,7.54
2019-02-14T05:51:43.038Z,7.52
2019-02-14T05:54:14.965Z,7.50
2019-02-14T05:56:46.866Z,7.53
2019-02-14T05:59:18.764Z,7.51
2019-02-14T06:01:49.321Z,7.54
2019-02-14T06:04:20.564Z,7.50
2019-02-14T06:06:51.192Z,7.49
2019-02-14T06:09:22.192Z,7.42
2019-02-14T06:11:52.851Z,7.44
2019-02-14T06:14:23.938Z,7.45
2019-02-14T06:16:54.805Z,7.49
2019-02-14T06:19:25.826Z,7.48
2019-02-14T06:21:57.308Z,7.47
2019-02-14T06:24:28.299Z,7.48
2019-02-14T06:26:59.910Z,7.46
2019-02-14T06:29:31.806Z,7.53
2019-02-14T06:32:02.770Z,7.58
2019-02-14T06:34:33.490Z,7.57
2019-02-14T06:37:09.618Z,7.57
2019-02-14T06:39:37.031Z,7.54
2019-02-14T06:42:08.225Z,7.57
2019-02-14T06:44:39.694Z,7.59
2019-02-14T06:47:10.966Z,7.55
2019-02-14T06:49:41.947Z,7.57
2019-02-14T06:52:13.682Z,7.55
2019-02-14T06:54:45.037Z,7.51
2019-02-14T06:57:18.520Z,7.47
2019-02-14T06:59:50.518Z,7.47
2019-02-14T07:02:22.073Z,7.51
2019-02-14T07:04:53.914Z,7.54
2019-02-14T07:07:26.155Z,7.58
2019-02-14T07:09:57.581Z,7.57
2019-02-14T07:12:29.128Z,7.52
2019-02-14T07:15:00.309Z,7.55
2019-02-14T07:17:31.336Z,7.58
2019-02-14T07:20:02.012Z,7.54
2019-02-14T07:22:32.745Z,7.54
2019-02-14T07:25:03.901Z,7.59
2019-02-14T07:27:34.613Z,7.62
2019-02-14T07:30:08.623Z,7.61
2019-02-14T07:32:39.319Z,7.57
2019-02-14T07:35:10.590Z,7.57
2019-02-14T07:37:41.806Z,7.57
2019-02-14T07:40:14.351Z,7.55
2019-02-14T07:42:44.945Z,7.54
2019-02-14T07:45:18.063Z,7.57
2019-02-14T07:47:49.341Z,7.55
2019-02-14T07:50:20.543Z,7.59
2019-02-14T07:52:51.303Z,7.59
2019-02-14T07:55:22.335Z,7.63
2019-02-14T07:57:53.495Z,7.60
2019-02-14T08:00:24.695Z,7.66
2019-02-14T08:02:56.422Z,7.67
2019-02-14T08:05:27.271Z,7.72
2019-02-14T08:07:58.141Z,7.79
2019-02-14T08:10:29.213Z,7.80
2019-02-14T08:13:00.334Z,7.78
2019-02-14T08:15:31.381Z,7.82
2019-02-14T08:18:02.584Z,7.79
2019-02-14T08:20:34.016Z,7.79
2019-02-14T08:23:05.239Z,7.79
2019-02-14T08:25:35.703Z,7.84
2019-02-14T08:28:06.863Z,7.82
2019-02-14T08:30:37.335Z,7.84
2019-02-14T08:33:08.937Z,7.85
2019-02-14T08:35:39.945Z,7.84
2019-02-14T08:38:11.816Z,7.84
2019-02-14T08:40:43.774Z,7.83
2019-02-14T08:43:15.496Z,7.89
2019-02-14T08:45:46.111Z,7.93
2019-02-14T08:48:17.111Z,7.90
2019-02-14T08:50:48.942Z,7.91
2019-02-14T08:53:21.127Z,7.94
2019-02-14T08:55:51.896Z,7.98
2019-02-14T08:58:22.695Z,7.99
2019-02-14T09:00:53.510Z,8.01
2019-02-14T09:03:24.223Z,8.05
2019-02-14T09:05:55.855Z,8.05
2019-02-14T09:08:37.268Z,8.09
2019-02-14T09:11:13.505Z,8.16
2019-02-14T09:13:44.066Z,8.13
2019-02-14T09:16:14.426Z,8.15
2019-02-14T09:18:46.029Z,8.13
2019-02-14T09:21:16.787Z,8.11
2019-02-14T09:23:48.141Z,8.10
2019-02-14T09:26:18.593Z,8.12
2019-02-14T09:29:01.046Z,8.16
2019-02-14T09:31:32.307Z,8.19
2019-02-14T09:34:09.043Z,8.27
2019-02-14T09:36:39.586Z,8.29
2019-02-14T09:39:10.002Z,8.34
2019-02-14T09:41:40.701Z,8.35
2019-02-14T09:44:11.171Z,8.37
2019-02-14T09:46:41.741Z,8.32
2019-02-14T09:49:12.175Z,8.33
2019-02-14T09:51:42.663Z,8.38
2019-02-14T09:54:14.434Z,8.32
2019-02-14T09:56:44.833Z,8.33
2019-02-14T09:59:15.308Z,8.35
2019-02-14T10:01:46.844Z,8.42
2019-02-14T10:04:19.826Z,8.41
2019-02-14T10:06:56.737Z,8.41
2019-02-14T10:09:29.932Z,8.48
2019-02-14T10:12:00.429Z,8.55
2019-02-14T10:14:31.618Z,8.61
2019-02-14T10:17:02.298Z,8.60
2019-02-14T10:19:34.344Z,8.65
2019-02-14T10:22:05.027Z,8.64
2019-02-14T10:24:35.483Z,8.65
2019-02-14T10:27:06.268Z,8.69
2019-02-14T10:29:36.886Z,8.69
2019-02-14T10:32:08.712Z,8.76
2019-02-14T10:34:39.706Z,8.82
2019-02-14T10:37:11.147Z,8.87
2019-02-14T10:39:42.389Z,8.80
2019-02-14T10:42:18.426Z,8.80
2019-02-14T10:44:49.067Z,8.76
2019-02-14T10:50:45.745Z,8.75
2019-02-14T10:53:19.328Z,8.74
2019-02-14T10:55:52.840Z,8.75
2019-02-14T10:58:24.649Z,8.67
2019-02-14T11:00:55.670Z,8.67
2019-02-14T11:03:25.974Z,8.66
2019-02-14T11:05:56.357Z,8.70
2019-02-14T11:08:31.793Z,8.76
2019-02-14T11:10:59.587Z,8.72
2019-02-14T11:13:31.372Z,8.73
2019-02-14T11:16:01.675Z,8.77
2019-02-14T11:18:31.955Z,8.78
2019-02-14T11:21:02.198Z,8.82
2019-02-14T11:23:32.522Z,8.87
2019-02-14T11:26:03.174Z,8.95
2019-02-14T11:28:33.440Z,8.95
2019-02-14T11:31:03.770Z,8.97
2019-02-14T11:33:34.345Z,8.87
2019-02-14T11:36:10.066Z,8.88
2019-02-14T11:38:41.148Z,8.87
2019-02-14T11:41:11.662Z,8.88
2019-02-14T11:43:42.017Z,8.92
2019-02-14T11:46:12.310Z,8.96
2019-02-14T11:48:43.612Z,9.05
2019-02-14T11:51:13.926Z,9.14
2019-02-14T11:53:44.176Z,9.18
2019-02-14T11:56:14.523Z,9.14
2019-02-14T11:58:44.795Z,9.16
2019-02-14T12:01:15.074Z,9.01
2019-02-14T12:03:45.542Z,8.89
2019-02-14T12:06:17.752Z,8.85
2019-02-14T12:08:59.417Z,8.76
2019-02-14T12:11:19.992Z,8.67
2019-02-14T12:13:50.336Z,8.65
2019-02-14T12:16:20.614Z,8.64
2019-02-14T12:18:50.883Z,8.65
2019-02-14T12:21:21.221Z,8.72
2019-02-14T12:23:51.513Z,8.76
2019-02-14T12:26:23.106Z,8.81
2019-02-14T12:28:53.390Z,8.83
2019-02-14T12:31:23.648Z,8.87
2019-02-14T12:33:53.967Z,8.95
2019-02-14T12:36:24.258Z,8.99
2019-02-14T12:38:54.734Z,8.95
2019-02-14T12:41:25.089Z,8.95
2019-02-14T12:43:55.377Z,8.90
2019-02-14T12:46:25.761Z,8.86
2019-02-14T12:48:56.059Z,8.86
2019-02-14T12:51:26.364Z,8.87
2019-02-14T12:53:56.704Z,8.93
2019-02-14T12:56:27.007Z,8.93
2019-02-14T12:58:57.347Z,8.95
2019-02-14T13:01:27.633Z,8.88
2019-02-14T13:03:57.971Z,8.97
2019-02-14T13:06:28.349Z,9.03
2019-02-14T13:08:58.993Z,9.04
2019-02-14T13:11:29.494Z,9.09
2019-02-14T13:14:02.356Z,9.14
2019-02-14T13:16:32.760Z,9.16
2019-02-14T13:19:03.032Z,9.09
2019-02-14T13:21:33.470Z,9.13
2019-02-14T13:24:03.788Z,9.10
2019-02-14T13:26:34.907Z,9.08
2019-02-14T13:29:05.652Z,9.04
2019-02-14T13:31:37.165Z,9.04
2019-02-14T13:34:08.449Z,9.00
2019-02-14T13:36:38.943Z,8.95
2019-02-14T13:39:09.458Z,8.89
2019-02-14T13:41:39.912Z,8.84
2019-02-14T13:44:10.209Z,8.85
2019-02-14T13:46:40.576Z,8.78
2019-02-14T13:49:10.860Z,8.70
2019-02-14T13:51:41.278Z,8.77
2019-02-14T13:54:11.562Z,8.79
2019-02-14T13:56:41.835Z,8.74
2019-02-14T13:59:12.172Z,8.75
2019-02-14T14:01:42.595Z,8.65
2019-02-14T14:04:13.165Z,8.66
2019-02-14T14:06:43.574Z,8.72
2019-02-14T14:09:13.922Z,8.65
2019-02-14T14:11:44.415Z,8.66
2019-02-14T14:14:14.829Z,8.65
2019-02-14T14:16:45.121Z,8.60
2019-02-14T14:19:15.542Z,8.62
2019-02-14T14:21:46.395Z,8.61
2019-02-14T14:24:16.846Z,8.66
2019-02-14T14:26:47.326Z,8.62
2019-02-14T14:29:17.598Z,8.57
2019-02-14T14:31:48.175Z,8.58
2019-02-14T14:34:19.587Z,8.56
2019-02-14T14:36:49.850Z,8.57
2019-02-14T14:39:20.207Z,8.51
2019-02-14T14:41:51.019Z,8.54
2019-02-14T14:44:24.456Z,8.51
2019-02-14T14:46:55.167Z,8.53
2019-02-14T14:49:25.530Z,8.49
2019-02-14T14:51:55.921Z,8.48
2019-02-14T14:54:26.247Z,8.52
2019-02-14T14:56:56.576Z,8.48
2019-02-14T14:59:26.949Z,8.54
2019-02-14T15:01:57.377Z,8.56
2019-02-14T15:04:27.922Z,8.44
2019-02-14T15:06:58.301Z,8.44
2019-02-14T15:09:28.769Z,8.44
2019-02-14T15:11:59.668Z,8.46
2019-02-14T15:14:31.254Z,8.47
2019-02-14T15:17:01.531Z,8.48
2019-02-14T15:19:32.883Z,8.52
2019-02-14T15:22:03.251Z,8.54
2019-02-14T15:24:33.538Z,8.54
2019-02-14T15:27:03.892Z,8.46
2019-02-14T15:29:34.235Z,8.43
2019-02-14T15:32:04.596Z,8.44
2019-02-14T15:34:34.954Z,8.35
2019-02-14T15:37:06.223Z,8.37
2019-02-14T15:39:39.026Z,8.37
2019-02-14T15:42:09.306Z,8.29
2019-02-14T15:44:39.679Z,8.25
2019-02-14T15:47:10.100Z,8.16
2019-02-14T15:49:40.404Z,8.13
2019-02-14T15:52:10.690Z,8.12
2019-02-14T15:54:41.019Z,8.13
2019-02-14T15:57:11.330Z,8.14
2019-02-14T15:59:43.474Z,8.13
2019-02-14T16:02:13.819Z,8.14
2019-02-14T16:04:45.974Z,8.12
2019-02-14T16:07:17.628Z,8.06
2019-02-14T16:09:48.805Z,8.05
2019-02-14T16:12:20.009Z,8.01
2019-02-14T16:14:51.353Z,8.02
2019-02-14T16:17:21.760Z,8.02
2019-02-14T16:19:52.059Z,7.99
2019-02-14T16:22:29.801Z,7.99
2019-02-14T16:24:54.396Z,8.04
2019-02-14T16:27:26.831Z,7.99
2019-02-14T16:29:57.106Z,8.01
2019-02-14T16:32:27.381Z,7.94
2019-02-14T16:34:57.660Z,7.96
2019-02-14T16:37:28.017Z,7.97
2019-02-14T16:39:58.569Z,7.93
2019-02-14T16:42:30.647Z,7.89
2019-02-14T16:45:00.982Z,7.90
2019-02-14T16:47:31.363Z,7.88
2019-02-14T16:50:01.703Z,7.83
2019-02-14T16:52:32.961Z,7.87
2019-02-14T16:55:03.236Z,7.87
2019-02-14T16:57:33.557Z,7.84
2019-02-14T17:00:04.492Z,7.81
2019-02-14T17:02:36.519Z,7.83
2019-02-14T17:05:06.824Z,7.77
2019-02-14T17:07:37.170Z,7.79
2019-02-14T17:10:10.160Z,7.76
2019-02-14T17:12:43.442Z,7.76
2019-02-14T17:15:13.930Z,7.78
2019-02-14T17:17:44.362Z,7.76
2019-02-14T17:20:14.726Z,7.77
2019-02-14T17:22:45.207Z,7.75
2019-02-14T17:25:17.264Z,7.75
2019-02-14T17:27:47.867Z,7.72
2019-02-14T17:30:18.142Z,7.64
2019-02-14T17:32:48.451Z,7.61
2019-02-14T17:35:18.875Z,7.62
2019-02-14T17:37:49.232Z,7.61
2019-02-14T17:40:19.556Z,7.64
2019-02-14T17:42:50.173Z,7.69
2019-02-14T17:45:20.533Z,7.67
2019-02-14T17:47:50.879Z,7.63
2019-02-14T17:50:21.222Z,7.58
2019-02-14T17:52:51.533Z,7.55
2019-02-14T17:55:22.052Z,7.51
2019-02-14T17:57:52.390Z,7.47
2019-02-14T18:00:23.026Z,7.47
2019-02-14T18:02:53.401Z,7.46
2019-02-14T18:05:23.761Z,7.41
2019-02-14T18:07:54.067Z,7.46
2019-02-14T18:10:26.265Z,7.51
2019-02-14T18:12:57.506Z,7.46
2019-02-14T18:15:28.585Z,7.50
2019-02-14T18:17:59.158Z,7.50
2019-02-14T18:20:29.515Z,7.49
2019-02-14T18:22:59.868Z,7.52
2019-02-14T18:25:30.180Z,7.56
2019-02-14T18:28:00.739Z,7.54
2019-02-14T18:30:31.048Z,7.55
2019-02-14T18:33:01.300Z,7.54
2019-02-14T18:35:31.656Z,7.53
2019-02-14T18:38:02.017Z,7.52
2019-02-14T18:40:32.389Z,7.51
2019-02-14T18:43:02.742Z,7.50
2019-02-14T18:45:33.078Z,7.50
2019-02-14T18:48:04.381Z,7.50
2019-02-14T18:50:34.640Z,7.44
2019-02-14T18:53:05.057Z,7.44
2019-02-14T18:55:35.363Z,7.44
2019-02-14T18:58:05.769Z,7.41
2019-02-14T19:00:36.324Z,7.41
2019-02-14T19:03:06.619Z,7.40
2019-02-14T19:05:36.882Z,7.39
2019-02-14T19:08:08.507Z,7.41
2019-02-14T19:10:39.388Z,7.39
2019-02-14T19:13:09.689Z,7.41
2019-02-14T19:15:40.162Z,7.38
2019-02-14T19:18:10.488Z,7.39
2019-02-14T19:20:40.760Z,7.34
2019-02-14T19:23:11.084Z,7.34
2019-02-14T19:25:41.378Z,7.33
2019-02-14T19:28:13.245Z,7.33
2019-02-14T19:30:43.593Z,7.36
2019-02-14T19:33:13.968Z,7.34
2019-02-14T19:35:44.297Z,7.33
2019-02-14T19:38:14.655Z,7.30
2019-02-14T19:40:45.003Z,7.31
2019-02-14T19:43:15.417Z,7.31
2019-02-14T19:45:45.729Z,7.30
2019-02-14T19:48:16.270Z,7.24
2019-02-14T19:50:46.788Z,7.20
2019-02-14T19:53:17.103Z,7.20
2019-02-14T19:55:47.424Z,7.17
2019-02-14T19:58:17.861Z,7.17
2019-02-14T20:00:48.213Z,7.15
2019-02-14T20:03:18.518Z,7.17
2019-02-14T20:05:48.969Z,7.15
2019-02-14T20:08:19.244Z,7.15
2019-02-14T20:10:49.599Z,7.14
2019-02-14T20:13:21.450Z,7.16
2019-02-14T20:15:52.683Z,7.11
2019-02-14T20:18:55.751Z,7.15
2019-02-14T20:21:44.143Z,7.15
2019-02-14T20:24:16.013Z,7.13
2019-02-14T20:26:47.268Z,7.17
2019-02-14T20:29:21.810Z,7.13
2019-02-14T20:31:52.888Z,7.12
2019-02-14T20:34:24.717Z,7.11
2019-02-14T20:36:57.336Z,7.10
2019-02-14T20:39:28.860Z,7.08
2019-02-14T20:42:00.277Z,7.08
2019-02-14T20:44:32.999Z,7.09
2019-02-14T20:47:05.319Z,7.11
2019-02-14T20:49:37.608Z,7.12
2019-02-14T20:52:09.189Z,7.16
2019-02-14T20:54:41.379Z,7.14
2019-02-14T20:57:13.319Z,7.15
2019-02-14T20:59:44.401Z,7.16
2019-02-14T21:02:15.779Z,7.13
2019-02-14T21:04:47.699Z,7.13
2019-02-14T21:07:19.578Z,7.15
2019-02-14T21:09:51.547Z,7.19
2019-02-14T21:12:22.466Z,7.17
2019-02-14T21:14:54.562Z,7.17
2019-02-14T21:17:25.543Z,7.11
2019-02-14T21:19:57.250Z,7.06
2019-02-14T21:22:29.189Z,7.04
2019-02-14T21:25:01.161Z,7.02
2019-02-14T21:27:35.091Z,7.06
2019-02-14T21:30:09.378Z,7.06
2019-02-14T21:32:41.337Z,7.03
2019-02-14T21:35:12.279Z,7.01
2019-02-14T21:37:43.535Z,7.02
2019-02-14T21:40:16.509Z,7.11
2019-02-14T21:42:47.478Z,7.15
2019-02-14T21:45:18.505Z,7.16
2019-02-14T21:47:51.016Z,7.10
2019-02-14T21:50:22.927Z,7.12
2019-02-14T21:52:54.807Z,7.08
2019-02-14T21:55:26.929Z,7.03
2019-02-14T21:57:59.116Z,7.00
2019-02-14T22:00:31.633Z,6.98
2019-02-14T22:03:02.480Z,6.97
2019-02-14T22:05:34.071Z,6.99
2019-02-14T22:08:07.290Z,7.00
2019-02-14T22:10:38.975Z,7.03
2019-02-14T22:13:10.236Z,7.05
2019-02-14T22:15:42.189Z,6.96
2019-02-14T22:18:13.231Z,6.94
2019-02-14T22:20:44.401Z,6.92
2019-02-14T22:23:15.840Z,6.91
2019-02-14T22:25:46.906Z,6.90
2019-02-14T22:28:18.042Z,6.92
2019-02-14T22:30:51.047Z,6.93
2019-02-14T22:33:22.443Z,7.00
2019-02-14T22:35:54.188Z,7.04
2019-02-14T22:38:25.508Z,7.02
2019-02-14T22:40:57.442Z,7.04
2019-02-14T22:43:28.036Z,7.04
2019-02-14T22:45:59.286Z,7.02
2019-02-14T22:48:30.862Z,7.00
2019-02-14T22:51:02.101Z,7.03
2019-02-14T22:53:34.739Z,7.01
2019-02-14T22:56:05.899Z,6.95
2019-02-14T22:58:36.860Z,6.89
2019-02-14T23:01:07.497Z,6.86
2019-02-14T23:03:38.778Z,6.80
2019-02-14T23:06:09.522Z,6.73
2019-02-14T23:08:41.346Z,6.71
2019-02-14T23:11:12.467Z,6.70
2019-02-14T23:13:44.060Z,6.67
2019-02-14T23:16:15.326Z,6.65
2019-02-14T23:18:46.928Z,6.62
2019-02-14T23:21:18.552Z,6.55
2019-02-14T23:23:49.713Z,6.52
2019-02-14T23:26:21.276Z,6.47
2019-02-14T23:28:53.359Z,6.39
2019-02-14T23:31:24.921Z,6.34
2019-02-14T23:33:55.910Z,6.29
2019-02-14T23:36:28.986Z,6.24
2019-02-14T23:39:00.522Z,6.22
2019-02-14T23:41:32.920Z,6.19
2019-02-14T23:44:04.426Z,6.15
2019-02-14T23:46:36.109Z,6.06
2019-02-14T23:49:07.745Z,6.05
2019-02-14T23:51:39.341Z,5.99
2019-02-14T23:54:10.944Z,5.97
2019-02-14T23:56:42.172Z,5.89
2019-02-14T23:59:13.402Z,5.83
